createdAt,value
2022-08-07T00:01:43.105Z,14.80
2022-08-07T00:03:51.066Z,14.74
2022-08-07T00:06:17.729Z,14.68
2022-08-07T00:08:47.081Z,14.61
2022-08-07T00:11:13.758Z,14.62
2022-08-07T00:13:47.900Z,14.60
2022-08-07T00:16:17.471Z,14.60
2022-08-07T00:18:48.426Z,14.59
2022-08-07T00:21:56.167Z,14.58
2022-08-07T00:24:01.707Z,14.48
2022-08-07T00:26:49.114Z,14.48
2022-08-07T00:29:15.434Z,14.47
2022-08-07T00:31:42.366Z,14.45
2022-08-07T00:34:09.496Z,14.32
2022-08-07T00:36:38.505Z,14.24
2022-08-07T00:39:05.795Z,14.18
2022-08-07T00:41:33.780Z,14.22
2022-08-07T00:44:11.834Z,14.24
2022-08-07T00:46:41.650Z,14.24
2022-08-07T00:49:10.377Z,14.23
2022-08-07T00:51:58.300Z,14.21
2022-08-07T00:54:25.430Z,14.17
2022-08-07T00:56:52.486Z,14.07
2022-08-07T00:59:35.949Z,14.00
2022-08-07T01:02:09.053Z,13.87
2022-08-07T01:04:53.619Z,13.76
2022-08-07T01:07:27.519Z,13.59
2022-08-07T01:10:04.905Z,13.57
2022-08-07T01:12:34.484Z,13.56
2022-08-07T01:15:04.059Z,13.59
2022-08-07T01:17:31.926Z,13.60
2022-08-07T01:20:10.691Z,13.56
2022-08-07T01:22:46.702Z,13.60
2022-08-07T01:25:53.668Z,13.65
2022-08-07T01:28:08.423Z,13.66
2022-08-07T01:30:39.263Z,13.66
2022-08-07T01:33:08.802Z,13.67
2022-08-07T01:35:53.536Z,13.68
2022-08-07T01:38:25.719Z,13.68
2022-08-07T01:40:55.546Z,13.67
2022-08-07T01:43:23.705Z,13.61
2022-08-07T01:45:54.760Z,13.60
2022-08-07T01:48:29.570Z,13.59
2022-08-07T01:51:24.673Z,13.59
2022-08-07T01:54:11.977Z,13.59
2022-08-07T01:56:53.310Z,13.56
2022-08-07T01:59:30.828Z,13.53
2022-08-07T02:02:10.495Z,13.50
2022-08-07T02:04:55.637Z,13.48
2022-08-07T02:07:44.969Z,13.47
2022-08-07T02:10:14.404Z,13.48
2022-08-07T02:12:43.462Z,13.48
2022-08-07T02:15:14.569Z,13.48
2022-08-07T02:17:49.555Z,13.44
2022-08-07T02:20:23.507Z,13.41
2022-08-07T02:22:54.829Z,13.40
2022-08-07T02:26:11.399Z,13.42
2022-08-07T02:28:12.682Z,13.42
2022-08-07T02:30:40.612Z,13.41
2022-08-07T02:33:10.430Z,13.36
2022-08-07T02:36:30.526Z,13.25
2022-08-07T02:38:32.595Z,13.23
2022-08-07T02:41:00.793Z,13.23
2022-08-07T02:43:31.200Z,13.24
2022-08-07T02:46:02.092Z,13.22
2022-08-07T02:48:30.512Z,13.17
2022-08-07T02:51:03.311Z,13.14
2022-08-07T02:53:38.517Z,13.12
2022-08-07T02:56:17.406Z,13.11
2022-08-07T02:58:47.395Z,13.10
2022-08-07T03:01:19.026Z,13.08
2022-08-07T03:04:03.338Z,13.07
2022-08-07T03:06:35.473Z,13.05
2022-08-07T03:09:04.136Z,13.02
2022-08-07T03:11:38.714Z,13.02
2022-08-07T03:14:06.647Z,12.99
2022-08-07T03:16:34.751Z,12.94
2022-08-07T03:19:01.843Z,12.91
2022-08-07T03:21:32.886Z,12.92
2022-08-07T03:24:19.560Z,12.93
2022-08-07T03:26:58.261Z,12.91
2022-08-07T03:29:28.309Z,12.91
2022-08-07T03:31:56.684Z,12.92
2022-08-07T03:34:27.317Z,12.90
2022-08-07T03:36:57.335Z,12.90
2022-08-07T03:39:46.393Z,12.89
2022-08-07T03:42:15.942Z,12.86
2022-08-07T03:44:47.346Z,12.84
2022-08-07T03:47:20.590Z,12.84
2022-08-07T03:49:52.383Z,12.81
2022-08-07T03:52:26.406Z,12.82
2022-08-07T03:54:58.950Z,12.81
2022-08-07T03:58:34.821Z,12.80
2022-08-07T04:00:21.276Z,12.77
2022-08-07T04:02:57.013Z,12.77
2022-08-07T04:05:24.175Z,12.80
2022-08-07T04:08:06.826Z,12.80
2022-08-07T04:10:33.884Z,12.76
2022-08-07T04:13:07.631Z,12.74
2022-08-07T04:15:43.355Z,12.73
2022-08-07T04:18:56.544Z,12.68
2022-08-07T04:21:01.277Z,12.62
2022-08-07T04:23:43.984Z,12.61
2022-08-07T04:26:16.880Z,12.49
2022-08-07T04:28:48.322Z,12.34
2022-08-07T04:31:19.773Z,12.18
2022-08-07T04:33:47.362Z,12.08
2022-08-07T04:36:22.752Z,12.14
2022-08-07T04:38:52.681Z,12.27
2022-08-07T04:41:19.611Z,12.38
2022-08-07T04:44:13.002Z,12.44
2022-08-07T04:46:59.318Z,12.49
2022-08-07T04:50:04.022Z,12.55
2022-08-07T04:52:51.381Z,12.60
2022-08-07T04:58:07.910Z,12.65
2022-08-07T04:58:48.829Z,12.69
2022-08-07T05:01:30.231Z,12.75
2022-08-07T05:04:33.883Z,12.79
2022-08-07T05:07:21.110Z,12.82
2022-08-07T05:10:13.825Z,12.85
2022-08-07T05:12:53.765Z,12.89
2022-08-07T05:15:31.265Z,12.92
2022-08-07T05:18:01.638Z,12.92
2022-08-07T05:20:43.734Z,12.92
2022-08-07T05:23:16.879Z,12.92
2022-08-07T05:26:11.187Z,12.95
2022-08-07T05:28:33.832Z,13.02
2022-08-07T05:31:03.680Z,13.08
2022-08-07T05:33:35.620Z,13.11
2022-08-07T05:36:07.056Z,13.16
2022-08-07T05:39:00.520Z,13.20
2022-08-07T05:42:00.328Z,13.29
2022-08-07T05:44:15.316Z,13.37
2022-08-07T05:46:42.853Z,13.44
2022-08-07T05:49:12.651Z,13.50
2022-08-07T05:51:42.517Z,13.58
2022-08-07T05:54:30.086Z,13.67
2022-08-07T05:56:57.959Z,13.70
2022-08-07T05:59:27.445Z,13.69
2022-08-07T06:01:57.421Z,13.73
2022-08-07T06:04:29.966Z,13.83
2022-08-07T06:07:03.630Z,13.91
2022-08-07T06:10:04.421Z,13.97
2022-08-07T06:12:18.540Z,14.06
2022-08-07T06:14:49.637Z,14.11
2022-08-07T06:17:19.221Z,14.19
2022-08-07T06:20:03.275Z,14.25
2022-08-07T06:22:36.886Z,14.37
2022-08-07T06:25:06.489Z,14.49
2022-08-07T06:27:59.819Z,14.57
2022-08-07T06:30:35.471Z,14.68
2022-08-07T06:33:05.616Z,14.78
2022-08-07T06:35:47.662Z,14.86
2022-08-07T06:38:28.799Z,14.97
2022-08-07T06:41:00.418Z,15.04
2022-08-07T06:43:39.127Z,15.13
2022-08-07T06:46:06.639Z,15.26
2022-08-07T06:48:42.081Z,15.36
2022-08-07T06:51:31.279Z,15.49
2022-08-07T06:55:28.553Z,15.65
2022-08-07T06:56:55.034Z,15.80
2022-08-07T07:00:12.716Z,15.90
2022-08-07T07:02:48.345Z,16.03
2022-08-07T07:05:05.792Z,16.17
2022-08-07T07:07:59.472Z,16.28
2022-08-07T07:10:31.253Z,16.39
2022-08-07T07:13:06.348Z,16.40
2022-08-07T07:15:43.269Z,16.52
2022-08-07T07:18:47.119Z,16.65
2022-08-07T07:21:27.050Z,16.78
2022-08-07T07:24:12.645Z,16.83
2022-08-07T07:26:51.855Z,16.85
2022-08-07T07:29:56.128Z,16.96
2022-08-07T07:32:14.353Z,16.97
2022-08-07T07:34:46.653Z,17.06
2022-08-07T07:37:44.361Z,17.19
2022-08-07T07:40:10.296Z,17.27
2022-08-07T07:42:43.974Z,17.31
2022-08-07T07:45:19.412Z,17.31
2022-08-07T07:47:53.305Z,17.35
2022-08-07T07:50:35.273Z,17.40
2022-08-07T07:53:20.437Z,17.49
2022-08-07T07:56:00.661Z,17.53
2022-08-07T07:58:37.072Z,17.61
2022-08-07T08:02:01.528Z,17.63
2022-08-07T08:04:10.467Z,17.66
2022-08-07T08:06:40.783Z,17.75
2022-08-07T08:09:22.700Z,17.84
2022-08-07T08:12:01.854Z,17.98
2022-08-07T08:14:36.253Z,18.06
2022-08-07T08:17:56.338Z,18.04
2022-08-07T08:20:17.734Z,18.01
2022-08-07T08:23:10.325Z,18.04
2022-08-07T08:26:03.333Z,18.12
2022-08-07T08:28:38.225Z,18.17
2022-08-07T08:31:14.877Z,18.22
2022-08-07T08:33:49.786Z,18.28
2022-08-07T08:36:30.035Z,18.28
2022-08-07T08:39:02.184Z,18.25
2022-08-07T08:41:57.804Z,18.27
2022-08-07T08:44:44.556Z,18.31
2022-08-07T08:47:51.868Z,18.39
2022-08-07T08:50:40.087Z,18.43
2022-08-07T08:53:19.273Z,18.50
2022-08-07T08:55:59.491Z,18.62
2022-08-07T08:58:36.020Z,18.67
2022-08-07T09:01:15.949Z,18.75
2022-08-07T09:04:25.889Z,18.81
2022-08-07T09:07:01.357Z,18.96
2022-08-07T09:09:57.043Z,19.06
2022-08-07T09:12:53.618Z,19.03
2022-08-07T09:16:21.617Z,19.00
2022-08-07T09:18:58.927Z,19.01
2022-08-07T09:21:34.509Z,19.13
2022-08-07T09:24:58.619Z,19.26
2022-08-07T09:27:31.184Z,19.31
2022-08-07T09:30:10.522Z,19.37
2022-08-07T09:33:24.200Z,19.41
2022-08-07T09:36:16.109Z,19.59
2022-08-07T09:38:54.147Z,19.78
2022-08-07T09:41:58.940Z,19.83
2022-08-07T09:44:52.209Z,20.01
2022-08-07T09:47:58.297Z,20.17
2022-08-07T09:50:31.593Z,20.25
2022-08-07T09:53:02.052Z,20.32
2022-08-07T09:56:03.988Z,20.33
2022-08-07T09:58:56.375Z,20.31
2022-08-07T10:01:54.350Z,20.45
2022-08-07T10:05:12.723Z,20.79
2022-08-07T10:07:52.673Z,20.90
2022-08-07T10:11:16.839Z,20.96
2022-08-07T10:14:01.640Z,21.17
2022-08-07T10:17:14.073Z,21.25
2022-08-07T10:19:55.232Z,21.50
2022-08-07T10:22:37.504Z,21.68
2022-08-07T10:25:42.481Z,21.77
2022-08-07T10:28:30.893Z,21.79
2022-08-07T10:31:38.729Z,22.04
2022-08-07T10:34:15.798Z,22.22
2022-08-07T10:36:51.201Z,22.28
2022-08-07T10:40:03.509Z,22.31
2022-08-07T10:42:50.075Z,22.53
2022-08-07T10:45:58.160Z,22.55
2022-08-07T10:48:39.231Z,22.63
2022-08-07T10:51:16.777Z,22.76
2022-08-07T10:54:12.353Z,22.76
2022-08-07T10:57:12.921Z,22.79
2022-08-07T10:59:54.494Z,23.11
2022-08-07T11:02:33.116Z,23.13
2022-08-07T11:05:49.005Z,23.02
2022-08-07T11:08:45.734Z,23.12
2022-08-07T11:11:40.210Z,23.20
2022-08-07T11:14:45.607Z,23.09
2022-08-07T11:17:43.274Z,23.31
2022-08-07T11:20:24.629Z,23.50
2022-08-07T11:23:36.347Z,23.53
2022-08-07T11:26:24.244Z,23.49
2022-08-07T11:29:13.169Z,23.62
2022-08-07T11:32:09.554Z,23.84
2022-08-07T11:34:59.721Z,23.76
2022-08-07T11:38:12.537Z,23.75
2022-08-07T11:41:00.548Z,24.00
2022-08-07T11:44:28.238Z,24.10
2022-08-07T11:47:06.756Z,24.06
2022-08-07T11:50:30.723Z,23.98
2022-08-07T11:53:33.773Z,24.07
2022-08-07T11:56:28.135Z,24.13
2022-08-07T12:00:12.090Z,24.01
2022-08-07T12:02:36.724Z,24.22
2022-08-07T12:05:47.726Z,24.47
2022-08-07T12:08:40.340Z,24.49
2022-08-07T12:11:32.447Z,24.85
2022-08-07T12:14:21.933Z,24.93
2022-08-07T12:16:58.183Z,24.93
2022-08-07T12:20:02.838Z,24.92
2022-08-07T12:22:56.412Z,24.98
2022-08-07T12:26:02.869Z,24.96
2022-08-07T12:28:49.737Z,24.79
2022-08-07T12:31:52.553Z,24.63
2022-08-07T12:34:25.888Z,24.88
2022-08-07T12:36:55.640Z,25.15
2022-08-07T12:39:42.374Z,25.26
2022-08-07T12:42:15.945Z,25.35
2022-08-07T12:44:48.881Z,25.23
2022-08-07T12:47:37.854Z,25.24
2022-08-07T12:50:33.835Z,25.32
2022-08-07T12:53:25.451Z,25.37
2022-08-07T12:56:10.140Z,25.14
2022-08-07T12:58:42.967Z,25.21
2022-08-07T13:01:13.491Z,25.23
2022-08-07T13:04:04.698Z,25.00
2022-08-07T13:07:00.407Z,24.85
2022-08-07T13:10:19.806Z,24.88
2022-08-07T13:13:08.407Z,25.01
2022-08-07T13:15:51.919Z,25.15
2022-08-07T13:18:29.897Z,25.26
2022-08-07T13:21:11.140Z,25.28
2022-08-07T13:24:01.364Z,25.39
2022-08-07T13:26:39.368Z,25.52
2022-08-07T13:29:34.864Z,25.46
2022-08-07T13:32:32.836Z,25.52
2022-08-07T13:35:15.914Z,25.27
2022-08-07T13:37:59.044Z,25.22
2022-08-07T13:40:42.254Z,25.41
2022-08-07T13:43:12.829Z,25.23
2022-08-07T13:46:11.534Z,25.27
2022-08-07T13:48:38.640Z,25.47
2022-08-07T13:51:26.925Z,25.49
2022-08-07T13:54:03.314Z,25.62
2022-08-07T13:56:35.419Z,25.74
2022-08-07T13:59:13.537Z,25.73
2022-08-07T14:02:03.683Z,25.72
2022-08-07T14:04:35.698Z,25.69
2022-08-07T14:07:09.658Z,25.66
2022-08-07T14:10:02.605Z,25.74
2022-08-07T14:12:41.569Z,25.57
2022-08-07T14:15:18.832Z,25.71
2022-08-07T14:18:23.970Z,25.88
2022-08-07T14:20:48.871Z,25.91
2022-08-07T14:24:01.272Z,25.97
2022-08-07T14:26:30.622Z,25.94
2022-08-07T14:29:10.399Z,25.78
2022-08-07T14:31:56.642Z,25.66
2022-08-07T14:34:29.743Z,25.52
2022-08-07T14:36:59.429Z,25.60
2022-08-07T14:40:16.377Z,25.48
2022-08-07T14:42:32.430Z,25.28
2022-08-07T14:50:52.044Z,25.28
2022-08-07T14:54:03.801Z,25.49
2022-08-07T14:56:13.078Z,25.82
2022-08-07T14:58:51.175Z,25.94
2022-08-07T15:04:18.080Z,25.89
2022-08-07T15:06:49.696Z,26.06
2022-08-07T15:09:57.559Z,26.05
2022-08-07T15:12:09.995Z,25.94
2022-08-07T15:15:07.576Z,26.12
2022-08-07T15:17:55.531Z,25.88
2022-08-07T15:20:32.903Z,25.60
2022-08-07T15:23:20.223Z,25.48
2022-08-07T15:25:55.383Z,25.16
2022-08-07T15:28:34.985Z,25.24
2022-08-07T15:31:12.912Z,25.28
2022-08-07T15:34:04.731Z,25.48
2022-08-07T15:37:02.896Z,25.52
2022-08-07T15:39:27.291Z,25.33
2022-08-07T15:42:44.296Z,25.29
2022-08-07T15:45:57.491Z,25.12
2022-08-07T15:48:33.419Z,25.21
2022-08-07T15:51:09.451Z,25.12
2022-08-07T15:53:52.636Z,25.23
2022-08-07T15:56:28.996Z,25.18
2022-08-07T15:59:01.254Z,25.16
2022-08-07T16:01:39.018Z,24.96
2022-08-07T16:04:15.581Z,25.01
2022-08-07T16:06:59.322Z,25.07
2022-08-07T16:09:42.316Z,24.88
2022-08-07T16:12:31.379Z,24.71
2022-08-07T16:15:18.150Z,24.63
2022-08-07T16:18:50.418Z,24.63
2022-08-07T16:22:01.801Z,24.51
2022-08-07T16:24:34.434Z,24.54
2022-08-07T16:27:18.259Z,24.58
2022-08-07T16:30:30.781Z,24.55
2022-08-07T16:34:01.994Z,24.45
2022-08-07T16:36:19.905Z,24.52
2022-08-07T16:39:01.924Z,24.68
2022-08-07T16:41:48.485Z,24.52
2022-08-07T16:45:15.189Z,24.33
2022-08-07T16:48:30.040Z,24.29
2022-08-07T16:51:54.470Z,24.07
2022-08-07T16:54:21.075Z,24.10
2022-08-07T16:57:05.666Z,24.03
2022-08-07T17:00:01.638Z,24.08
2022-08-07T17:02:51.164Z,24.07
2022-08-07T17:06:18.944Z,24.06
2022-08-07T17:09:10.718Z,24.05
2022-08-07T17:12:05.332Z,24.05
2022-08-07T17:15:16.526Z,23.85
2022-08-07T17:17:49.077Z,23.70
2022-08-07T17:20:41.808Z,23.71
2022-08-07T17:23:20.707Z,23.58
2022-08-07T17:26:03.510Z,23.42
2022-08-07T17:28:49.909Z,23.34
2022-08-07T17:31:44.211Z,23.34
2022-08-07T17:35:02.729Z,23.34
2022-08-07T17:38:05.959Z,23.22
2022-08-07T17:42:02.374Z,23.22
2022-08-07T17:44:01.707Z,23.17
2022-08-07T17:46:58.426Z,23.05
2022-08-07T17:49:24.922Z,23.08
2022-08-07T17:52:21.941Z,22.96
2022-08-07T17:55:16.484Z,22.94
2022-08-07T17:58:11.194Z,22.90
2022-08-07T18:00:59.566Z,22.75
2022-08-07T18:04:04.326Z,22.65
2022-08-07T18:06:36.841Z,22.66
2022-08-07T18:09:06.180Z,22.66
2022-08-07T18:12:17.337Z,22.61
2022-08-07T18:15:09.933Z,22.62
2022-08-07T18:19:02.593Z,22.54
2022-08-07T18:21:04.199Z,22.40
2022-08-07T18:23:57.520Z,22.40
2022-08-07T18:26:44.581Z,22.37
2022-08-07T18:30:07.453Z,22.26
2022-08-07T18:32:24.606Z,22.26
2022-08-07T18:35:28.213Z,22.12
2022-08-07T18:38:55.627Z,21.99
2022-08-07T18:41:20.756Z,21.96
2022-08-07T18:43:58.212Z,21.84
2022-08-07T18:46:42.978Z,21.82
2022-08-07T18:50:31.466Z,21.75
2022-08-07T18:52:53.557Z,21.70
2022-08-07T18:55:41.029Z,21.66
2022-08-07T18:58:31.924Z,21.48
2022-08-07T19:02:16.041Z,21.46
2022-08-07T19:04:13.934Z,21.45
2022-08-07T19:06:53.199Z,21.42
2022-08-07T19:09:56.609Z,21.39
2022-08-07T19:12:53.429Z,21.33
2022-08-07T19:16:04.411Z,21.28
2022-08-07T19:19:00.276Z,21.16
2022-08-07T19:22:04.845Z,21.05
2022-08-07T19:24:44.452Z,20.90
2022-08-07T19:28:30.610Z,20.75
2022-08-07T19:31:05.119Z,20.66
2022-08-07T19:33:13.139Z,20.60
2022-08-07T19:35:42.167Z,20.47
2022-08-07T19:38:17.013Z,20.32
2022-08-07T19:40:49.661Z,20.28
2022-08-07T19:43:48.816Z,20.27
2022-08-07T19:46:14.673Z,20.24
2022-08-07T19:48:54.016Z,20.15
2022-08-07T19:51:51.202Z,20.11
2022-08-07T19:54:32.757Z,20.11
2022-08-07T19:58:00.427Z,20.11
2022-08-07T19:59:56.391Z,20.01
2022-08-07T20:02:52.130Z,19.98
2022-08-07T20:05:25.391Z,19.87
2022-08-07T20:07:59.433Z,19.81
2022-08-07T20:10:36.538Z,19.79
2022-08-07T20:13:32.165Z,19.73
2022-08-07T20:16:02.559Z,19.66
2022-08-07T20:18:32.289Z,19.62
2022-08-07T20:21:02.179Z,19.60
2022-08-07T20:23:41.056Z,19.55
2022-08-07T20:26:15.326Z,19.50
2022-08-07T20:29:10.125Z,19.42
2022-08-07T20:31:46.490Z,19.39
2022-08-07T20:34:15.097Z,19.36
2022-08-07T20:36:44.069Z,19.30
2022-08-07T20:40:01.377Z,19.28
2022-08-07T20:42:14.553Z,19.25
2022-08-07T20:44:49.324Z,19.17
2022-08-07T20:47:25.141Z,19.13
2022-08-07T20:49:58.116Z,19.06
2022-08-07T20:52:50.717Z,19.01
2022-08-07T20:55:23.717Z,18.95
2022-08-07T20:58:11.944Z,18.89
2022-08-07T21:00:51.337Z,18.81
2022-08-07T21:03:23.293Z,18.79
2022-08-07T21:06:03.675Z,18.77
2022-08-07T21:09:15.015Z,18.72
2022-08-07T21:11:51.050Z,18.69
2022-08-07T21:14:33.213Z,18.65
2022-08-07T21:18:02.603Z,18.61
2022-08-07T21:20:04.857Z,18.56
2022-08-07T21:22:39.218Z,18.43
2022-08-07T21:25:22.654Z,18.37
2022-08-07T21:28:16.777Z,18.30
2022-08-07T21:31:08.777Z,18.27
2022-08-07T21:33:52.169Z,18.25
2022-08-07T21:36:40.134Z,18.25
2022-08-07T21:39:46.853Z,18.21
2022-08-07T21:42:42.829Z,18.17
2022-08-07T21:46:08.152Z,18.09
2022-08-07T21:48:26.839Z,17.98
2022-08-07T21:51:25.013Z,17.83
2022-08-07T21:53:55.079Z,17.74
2022-08-07T21:56:36.447Z,17.70
2022-08-07T21:59:21.395Z,17.68
2022-08-07T22:02:10.545Z,17.70
2022-08-07T22:04:53.480Z,17.71
2022-08-07T22:07:31.438Z,17.63
2022-08-07T22:10:06.019Z,17.62
2022-08-07T22:12:59.347Z,17.60
2022-08-07T22:16:43.567Z,17.58
2022-08-07T22:18:49.663Z,17.54
2022-08-07T22:22:02.275Z,17.51
2022-08-07T22:24:17.775Z,17.50
2022-08-07T22:26:59.294Z,17.45
2022-08-07T22:29:47.510Z,17.39
2022-08-07T22:32:54.880Z,17.35
2022-08-07T22:35:23.483Z,17.20
2022-08-07T22:38:33.744Z,17.01
2022-08-07T22:41:07.594Z,16.77
2022-08-07T22:43:56.037Z,16.56
2022-08-07T22:47:03.563Z,16.54
2022-08-07T22:49:54.328Z,16.71
2022-08-07T22:52:43.450Z,16.78
2022-08-07T22:55:30.714Z,16.81
2022-08-07T22:58:04.267Z,16.81
2022-08-07T23:00:36.491Z,16.79
2022-08-07T23:03:59.143Z,16.77
2022-08-07T23:07:01.514Z,16.77
2022-08-07T23:10:05.257Z,16.78
2022-08-07T23:13:03.231Z,16.69
2022-08-07T23:16:05.669Z,16.57
2022-08-07T23:19:11.289Z,16.40
2022-08-07T23:21:51.707Z,16.32
2022-08-07T23:24:45.763Z,16.28
2022-08-07T23:28:20.507Z,16.36
2022-08-07T23:31:06.445Z,16.40
2022-08-07T23:34:34.286Z,16.28
2022-08-07T23:37:19.573Z,16.14
2022-08-07T23:40:15.608Z,15.97
2022-08-07T23:43:00.747Z,15.86
2022-08-07T23:46:03.017Z,15.63
2022-08-07T23:48:56.188Z,15.53
2022-08-07T23:52:59.791Z,15.65
2022-08-07T23:54:46.464Z,15.79
2022-08-07T23:57:40.966Z,15.84
